sensor_id;sensor_type;location;lat;lon;timestamp;P1;durP1;ratioP1;P2;durP2;ratioP2
44328;SDS011;30039;51.462;6.892;2023-05-03T00:01:24;7.38;;;3.17;;
44328;SDS011;30039;51.462;6.892;2023-05-03T00:04:10;4.63;;;2.85;;
44328;SDS011;30039;51.462;6.892;2023-05-03T00:06:56;4.43;;;2.78;;
44328;SDS011;30039;51.462;6.892;2023-05-03T00:09:41;4.95;;;2.65;;
44328;SDS011;30039;51.462;6.892;2023-05-03T00:12:27;4.68;;;2.65;;
44328;SDS011;30039;51.462;6.892;2023-05-03T00:15:12;4.95;;;2.67;;
44328;SDS011;30039;51.462;6.892;2023-05-03T00:17:58;7.60;;;3.40;;
44328;SDS011;30039;51.462;6.892;2023-05-03T00:20:44;6.90;;;3.50;;
44328;SDS011;30039;51.462;6.892;2023-05-03T00:23:29;7.07;;;3.38;;
44328;SDS011;30039;51.462;6.892;2023-05-03T00:26:15;8.35;;;3.60;;
44328;SDS011;30039;51.462;6.892;2023-05-03T00:29:01;9.15;;;3.38;;
44328;SDS011;30039;51.462;6.892;2023-05-03T00:31:47;5.07;;;3.42;;
44328;SDS011;30039;51.462;6.892;2023-05-03T00:34:32;9.15;;;3.90;;
44328;SDS011;30039;51.462;6.892;2023-05-03T00:37:18;9.00;;;4.32;;
44328;SDS011;30039;51.462;6.892;2023-05-03T00:40:04;6.15;;;3.38;;
44328;SDS011;30039;51.462;6.892;2023-05-03T00:42:49;6.40;;;3.40;;
44328;SDS011;30039;51.462;6.892;2023-05-03T00:45:35;6.80;;;3.50;;
44328;SDS011;30039;51.462;6.892;2023-05-03T00:48:21;6.05;;;3.70;;
44328;SDS011;30039;51.462;6.892;2023-05-03T00:51:06;8.32;;;3.70;;
44328;SDS011;30039;51.462;6.892;2023-05-03T00:53:53;6.78;;;3.30;;
44328;SDS011;30039;51.462;6.892;2023-05-03T00:56:38;5.93;;;3.40;;
44328;SDS011;30039;51.462;6.892;2023-05-03T00:59:24;6.57;;;3.40;;
44328;SDS011;30039;51.462;6.892;2023-05-03T01:02:10;5.82;;;3.15;;
44328;SDS011;30039;51.462;6.892;2023-05-03T01:04:56;4.43;;;3.60;;
44328;SDS011;30039;51.462;6.892;2023-05-03T01:16:56;6.35;;;3.38;;
44328;SDS011;30039;51.462;6.892;2023-05-03T01:19:43;6.57;;;3.17;;
44328;SDS011;30039;51.462;6.892;2023-05-03T01:25:15;6.72;;;3.30;;
44328;SDS011;30039;51.462;6.892;2023-05-03T01:28:01;6.40;;;3.10;;
44328;SDS011;30039;51.462;6.892;2023-05-03T01:30:47;7.10;;;3.10;;
44328;SDS011;30039;51.462;6.892;2023-05-03T01:33:39;7.72;;;2.80;;
44328;SDS011;30039;51.462;6.892;2023-05-03T01:36:29;6.93;;;3.38;;
44328;SDS011;30039;51.462;6.892;2023-05-03T01:39:26;7.65;;;2.88;;
44328;SDS011;30039;51.462;6.892;2023-05-03T01:42:13;8.35;;;2.88;;
44328;SDS011;30039;51.462;6.892;2023-05-03T01:44:59;5.43;;;2.60;;
44328;SDS011;30039;51.462;6.892;2023-05-03T01:47:47;5.05;;;2.58;;
44328;SDS011;30039;51.462;6.892;2023-05-03T01:50:33;4.72;;;2.78;;
44328;SDS011;30039;51.462;6.892;2023-05-03T01:53:18;5.45;;;2.50;;
44328;SDS011;30039;51.462;6.892;2023-05-03T01:56:04;5.82;;;2.78;;
44328;SDS011;30039;51.462;6.892;2023-05-03T01:58:50;6.13;;;3.10;;
44328;SDS011;30039;51.462;6.892;2023-05-03T02:01:36;6.80;;;2.90;;
44328;SDS011;30039;51.462;6.892;2023-05-03T02:04:21;5.38;;;2.95;;
44328;SDS011;30039;51.462;6.892;2023-05-03T02:07:07;9.18;;;3.30;;
44328;SDS011;30039;51.462;6.892;2023-05-03T02:09:53;6.35;;;3.13;;
44328;SDS011;30039;51.462;6.892;2023-05-03T02:12:40;6.72;;;2.92;;
44328;SDS011;30039;51.462;6.892;2023-05-03T02:15:25;5.47;;;3.22;;
44328;SDS011;30039;51.462;6.892;2023-05-03T02:18:11;8.93;;;3.45;;
44328;SDS011;30039;51.462;6.892;2023-05-03T02:20:57;6.60;;;2.90;;
44328;SDS011;30039;51.462;6.892;2023-05-03T02:23:42;4.60;;;3.10;;
44328;SDS011;30039;51.462;6.892;2023-05-03T02:26:28;5.68;;;3.35;;
44328;SDS011;30039;51.462;6.892;2023-05-03T02:29:14;6.03;;;3.90;;
44328;SDS011;30039;51.462;6.892;2023-05-03T02:32:00;7.45;;;3.05;;
44328;SDS011;30039;51.462;6.892;2023-05-03T02:34:46;8.00;;;3.60;;
44328;SDS011;30039;51.462;6.892;2023-05-03T02:37:32;6.82;;;3.53;;
44328;SDS011;30039;51.462;6.892;2023-05-03T02:40:18;5.65;;;3.47;;
44328;SDS011;30039;51.462;6.892;2023-05-03T02:43:03;5.85;;;2.83;;
44328;SDS011;30039;51.462;6.892;2023-05-03T02:45:50;6.70;;;3.13;;
44328;SDS011;30039;51.462;6.892;2023-05-03T02:48:36;7.75;;;2.85;;
44328;SDS011;30039;51.462;6.892;2023-05-03T02:51:21;7.45;;;3.05;;
44328;SDS011;30039;51.462;6.892;2023-05-03T02:54:07;4.70;;;2.60;;
44328;SDS011;30039;51.462;6.892;2023-05-03T02:56:52;8.02;;;2.92;;
44328;SDS011;30039;51.462;6.892;2023-05-03T02:59:38;6.43;;;2.90;;
44328;SDS011;30039;51.462;6.892;2023-05-03T03:02:24;8.60;;;3.20;;
44328;SDS011;30039;51.462;6.892;2023-05-03T03:05:10;4.97;;;3.10;;
44328;SDS011;30039;51.462;6.892;2023-05-03T03:07:56;4.70;;;3.13;;
44328;SDS011;30039;51.462;6.892;2023-05-03T03:10:42;7.78;;;3.40;;
44328;SDS011;30039;51.462;6.892;2023-05-03T03:13:28;8.73;;;3.75;;
44328;SDS011;30039;51.462;6.892;2023-05-03T03:16:13;5.60;;;3.40;;
44328;SDS011;30039;51.462;6.892;2023-05-03T03:18:59;6.85;;;3.58;;
44328;SDS011;30039;51.462;6.892;2023-05-03T03:21:44;6.93;;;3.38;;
44328;SDS011;30039;51.462;6.892;2023-05-03T03:24:30;7.45;;;3.25;;
44328;SDS011;30039;51.462;6.892;2023-05-03T03:27:16;5.30;;;3.40;;
44328;SDS011;30039;51.462;6.892;2023-05-03T03:30:01;5.82;;;3.20;;
44328;SDS011;30039;51.462;6.892;2023-05-03T03:32:47;6.53;;;3.10;;
44328;SDS011;30039;51.462;6.892;2023-05-03T03:35:33;6.15;;;3.17;;
44328;SDS011;30039;51.462;6.892;2023-05-03T03:38:18;5.55;;;2.70;;
44328;SDS011;30039;51.462;6.892;2023-05-03T03:41:04;6.13;;;2.92;;
44328;SDS011;30039;51.462;6.892;2023-05-03T03:43:50;6.07;;;3.20;;
44328;SDS011;30039;51.462;6.892;2023-05-03T03:46:35;5.97;;;3.08;;
44328;SDS011;30039;51.462;6.892;2023-05-03T03:49:21;8.02;;;3.33;;
44328;SDS011;30039;51.462;6.892;2023-05-03T03:52:07;6.07;;;3.00;;
44328;SDS011;30039;51.462;6.892;2023-05-03T03:54:53;8.30;;;3.13;;
44328;SDS011;30039;51.462;6.892;2023-05-03T03:57:38;6.45;;;3.75;;
44328;SDS011;30039;51.462;6.892;2023-05-03T04:00:24;5.43;;;3.58;;
44328;SDS011;30039;51.462;6.892;2023-05-03T04:03:10;6.15;;;3.70;;
44328;SDS011;30039;51.462;6.892;2023-05-03T04:05:56;5.80;;;3.78;;
44328;SDS011;30039;51.462;6.892;2023-05-03T04:08:43;6.00;;;3.70;;
44328;SDS011;30039;51.462;6.892;2023-05-03T04:11:29;7.70;;;3.47;;
44328;SDS011;30039;51.462;6.892;2023-05-03T04:14:15;7.88;;;3.30;;
44328;SDS011;30039;51.462;6.892;2023-05-03T04:17:00;7.85;;;3.20;;
44328;SDS011;30039;51.462;6.892;2023-05-03T04:19:46;4.95;;;3.28;;
44328;SDS011;30039;51.462;6.892;2023-05-03T04:22:32;4.07;;;3.05;;
44328;SDS011;30039;51.462;6.892;2023-05-03T04:25:18;5.35;;;3.42;;
44328;SDS011;30039;51.462;6.892;2023-05-03T04:28:03;4.88;;;3.40;;
44328;SDS011;30039;51.462;6.892;2023-05-03T04:30:51;8.32;;;3.92;;
44328;SDS011;30039;51.462;6.892;2023-05-03T04:33:37;7.82;;;3.65;;
44328;SDS011;30039;51.462;6.892;2023-05-03T04:36:23;11.88;;;3.30;;
44328;SDS011;30039;51.462;6.892;2023-05-03T04:39:14;8.20;;;3.75;;
44328;SDS011;30039;51.462;6.892;2023-05-03T04:41:59;8.18;;;4.20;;
44328;SDS011;30039;51.462;6.892;2023-05-03T04:44:46;7.05;;;3.53;;
44328;SDS011;30039;51.462;6.892;2023-05-03T04:47:32;7.93;;;3.92;;
44328;SDS011;30039;51.462;6.892;2023-05-03T04:50:17;7.72;;;4.40;;
44328;SDS011;30039;51.462;6.892;2023-05-03T04:53:03;7.00;;;3.88;;
44328;SDS011;30039;51.462;6.892;2023-05-03T04:55:49;5.95;;;4.00;;
44328;SDS011;30039;51.462;6.892;2023-05-03T04:58:35;8.00;;;4.13;;
44328;SDS011;30039;51.462;6.892;2023-05-03T05:01:22;7.32;;;3.63;;
44328;SDS011;30039;51.462;6.892;2023-05-03T05:04:12;7.15;;;3.97;;
44328;SDS011;30039;51.462;6.892;2023-05-03T05:06:58;6.25;;;3.70;;
44328;SDS011;30039;51.462;6.892;2023-05-03T05:09:43;6.65;;;3.20;;
44328;SDS011;30039;51.462;6.892;2023-05-03T05:12:29;5.57;;;3.78;;
44328;SDS011;30039;51.462;6.892;2023-05-03T05:15:16;8.65;;;3.90;;
44328;SDS011;30039;51.462;6.892;2023-05-03T05:18:02;5.50;;;3.50;;
44328;SDS011;30039;51.462;6.892;2023-05-03T05:20:47;11.77;;;4.38;;
44328;SDS011;30039;51.462;6.892;2023-05-03T05:23:33;5.15;;;3.75;;
44328;SDS011;30039;51.462;6.892;2023-05-03T05:26:19;7.90;;;3.58;;
44328;SDS011;30039;51.462;6.892;2023-05-03T05:29:04;7.22;;;3.80;;
44328;SDS011;30039;51.462;6.892;2023-05-03T05:31:50;8.20;;;4.32;;
44328;SDS011;30039;51.462;6.892;2023-05-03T05:34:37;11.73;;;3.95;;
44328;SDS011;30039;51.462;6.892;2023-05-03T05:37:23;8.38;;;3.78;;
44328;SDS011;30039;51.462;6.892;2023-05-03T05:40:09;6.43;;;3.67;;
44328;SDS011;30039;51.462;6.892;2023-05-03T05:42:55;9.07;;;3.92;;
44328;SDS011;30039;51.462;6.892;2023-05-03T05:45:41;10.05;;;3.80;;
44328;SDS011;30039;51.462;6.892;2023-05-03T05:48:27;7.40;;;3.78;;
44328;SDS011;30039;51.462;6.892;2023-05-03T05:51:12;18.98;;;6.78;;
44328;SDS011;30039;51.462;6.892;2023-05-03T05:53:58;7.93;;;3.63;;
44328;SDS011;30039;51.462;6.892;2023-05-03T05:56:44;7.22;;;3.40;;
44328;SDS011;30039;51.462;6.892;2023-05-03T05:59:30;6.00;;;3.30;;
44328;SDS011;30039;51.462;6.892;2023-05-03T06:02:16;6.80;;;3.75;;
44328;SDS011;30039;51.462;6.892;2023-05-03T06:05:02;5.35;;;3.70;;
44328;SDS011;30039;51.462;6.892;2023-05-03T06:07:49;6.80;;;4.07;;
44328;SDS011;30039;51.462;6.892;2023-05-03T06:10:34;5.65;;;3.40;;
44328;SDS011;30039;51.462;6.892;2023-05-03T06:13:20;6.80;;;3.97;;
44328;SDS011;30039;51.462;6.892;2023-05-03T06:16:06;7.60;;;3.03;;
44328;SDS011;30039;51.462;6.892;2023-05-03T06:18:52;5.22;;;3.80;;
44328;SDS011;30039;51.462;6.892;2023-05-03T06:21:37;5.28;;;3.55;;
44328;SDS011;30039;51.462;6.892;2023-05-03T06:24:23;5.47;;;3.15;;
44328;SDS011;30039;51.462;6.892;2023-05-03T06:27:08;7.32;;;3.65;;
44328;SDS011;30039;51.462;6.892;2023-05-03T06:29:54;8.30;;;3.22;;
44328;SDS011;30039;51.462;6.892;2023-05-03T06:32:40;4.60;;;3.17;;
44328;SDS011;30039;51.462;6.892;2023-05-03T06:35:26;5.68;;;2.90;;
44328;SDS011;30039;51.462;6.892;2023-05-03T06:38:12;5.30;;;3.35;;
44328;SDS011;30039;51.462;6.892;2023-05-03T06:40:58;5.72;;;3.03;;
44328;SDS011;30039;51.462;6.892;2023-05-03T06:43:45;7.03;;;3.13;;
44328;SDS011;30039;51.462;6.892;2023-05-03T06:46:30;5.20;;;2.92;;
44328;SDS011;30039;51.462;6.892;2023-05-03T06:49:16;5.72;;;3.30;;
44328;SDS011;30039;51.462;6.892;2023-05-03T06:52:02;6.35;;;3.33;;
44328;SDS011;30039;51.462;6.892;2023-05-03T06:54:47;4.30;;;3.15;;
44328;SDS011;30039;51.462;6.892;2023-05-03T06:57:33;5.03;;;3.35;;
44328;SDS011;30039;51.462;6.892;2023-05-03T07:00:19;7.25;;;3.70;;
44328;SDS011;30039;51.462;6.892;2023-05-03T07:03:05;6.18;;;3.38;;
44328;SDS011;30039;51.462;6.892;2023-05-03T07:05:51;6.90;;;3.65;;
44328;SDS011;30039;51.462;6.892;2023-05-03T07:08:37;5.07;;;3.10;;
44328;SDS011;30039;51.462;6.892;2023-05-03T07:11:23;7.32;;;3.70;;
44328;SDS011;30039;51.462;6.892;2023-05-03T07:14:08;6.10;;;3.25;;
44328;SDS011;30039;51.462;6.892;2023-05-03T07:16:56;4.35;;;2.90;;
44328;SDS011;30039;51.462;6.892;2023-05-03T07:19:41;6.95;;;3.05;;
44328;SDS011;30039;51.462;6.892;2023-05-03T07:22:27;6.82;;;3.35;;
44328;SDS011;30039;51.462;6.892;2023-05-03T07:25:13;6.63;;;3.20;;
44328;SDS011;30039;51.462;6.892;2023-05-03T07:28:01;4.90;;;2.97;;
44328;SDS011;30039;51.462;6.892;2023-05-03T07:30:47;6.53;;;3.10;;
44328;SDS011;30039;51.462;6.892;2023-05-03T07:33:33;6.68;;;3.03;;
44328;SDS011;30039;51.462;6.892;2023-05-03T07:36:21;6.55;;;3.38;;
44328;SDS011;30039;51.462;6.892;2023-05-03T07:39:08;6.90;;;3.25;;
44328;SDS011;30039;51.462;6.892;2023-05-03T07:41:55;3.42;;;2.80;;
44328;SDS011;30039;51.462;6.892;2023-05-03T07:44:40;8.32;;;3.30;;
44328;SDS011;30039;51.462;6.892;2023-05-03T07:47:27;5.85;;;3.00;;
44328;SDS011;30039;51.462;6.892;2023-05-03T07:50:13;5.88;;;2.90;;
44328;SDS011;30039;51.462;6.892;2023-05-03T07:52:59;5.85;;;3.03;;
44328;SDS011;30039;51.462;6.892;2023-05-03T07:55:44;4.18;;;2.83;;
44328;SDS011;30039;51.462;6.892;2023-05-03T07:58:30;4.95;;;2.85;;
44328;SDS011;30039;51.462;6.892;2023-05-03T08:01:16;6.38;;;2.70;;
44328;SDS011;30039;51.462;6.892;2023-05-03T08:04:02;5.57;;;2.75;;
44328;SDS011;30039;51.462;6.892;2023-05-03T08:06:47;4.25;;;2.15;;
44328;SDS011;30039;51.462;6.892;2023-05-03T08:09:34;3.78;;;2.17;;
44328;SDS011;30039;51.462;6.892;2023-05-03T08:12:20;4.72;;;2.50;;
44328;SDS011;30039;51.462;6.892;2023-05-03T08:15:06;4.00;;;2.25;;
44328;SDS011;30039;51.462;6.892;2023-05-03T08:17:52;5.80;;;2.00;;
44328;SDS011;30039;51.462;6.892;2023-05-03T08:20:38;4.68;;;2.65;;
44328;SDS011;30039;51.462;6.892;2023-05-03T08:23:23;3.75;;;2.22;;
44328;SDS011;30039;51.462;6.892;2023-05-03T08:26:10;4.90;;;2.30;;
44328;SDS011;30039;51.462;6.892;2023-05-03T08:28:58;3.70;;;2.15;;
44328;SDS011;30039;51.462;6.892;2023-05-03T08:31:44;5.07;;;2.30;;
44328;SDS011;30039;51.462;6.892;2023-05-03T08:34:32;7.13;;;2.67;;
44328;SDS011;30039;51.462;6.892;2023-05-03T08:37:18;6.82;;;2.70;;
44328;SDS011;30039;51.462;6.892;2023-05-03T08:40:04;6.10;;;2.65;;
44328;SDS011;30039;51.462;6.892;2023-05-03T08:42:52;5.72;;;2.88;;
44328;SDS011;30039;51.462;6.892;2023-05-03T08:45:40;4.32;;;2.40;;
44328;SDS011;30039;51.462;6.892;2023-05-03T08:48:26;2.92;;;2.00;;
44328;SDS011;30039;51.462;6.892;2023-05-03T08:51:12;3.78;;;2.03;;
44328;SDS011;30039;51.462;6.892;2023-05-03T08:53:58;4.95;;;2.10;;
44328;SDS011;30039;51.462;6.892;2023-05-03T08:56:43;4.70;;;2.60;;
44328;SDS011;30039;51.462;6.892;2023-05-03T08:59:30;5.15;;;2.40;;
44328;SDS011;30039;51.462;6.892;2023-05-03T09:02:16;3.40;;;2.30;;
44328;SDS011;30039;51.462;6.892;2023-05-03T09:05:02;3.92;;;2.50;;
44328;SDS011;30039;51.462;6.892;2023-05-03T09:08:02;4.57;;;2.28;;
44328;SDS011;30039;51.462;6.892;2023-05-03T09:10:48;6.68;;;2.53;;
44328;SDS011;30039;51.462;6.892;2023-05-03T09:13:34;7.10;;;2.28;;
44328;SDS011;30039;51.462;6.892;2023-05-03T09:16:25;4.82;;;2.60;;
44328;SDS011;30039;51.462;6.892;2023-05-03T09:19:12;5.72;;;2.13;;
44328;SDS011;30039;51.462;6.892;2023-05-03T09:22:05;3.20;;;2.33;;
44328;SDS011;30039;51.462;6.892;2023-05-03T09:24:51;4.03;;;2.45;;
44328;SDS011;30039;51.462;6.892;2023-05-03T09:27:38;6.10;;;2.80;;
44328;SDS011;30039;51.462;6.892;2023-05-03T09:30:24;4.63;;;2.83;;
44328;SDS011;30039;51.462;6.892;2023-05-03T09:33:09;7.43;;;2.75;;
44328;SDS011;30039;51.462;6.892;2023-05-03T09:35:56;4.03;;;2.42;;
44328;SDS011;30039;51.462;6.892;2023-05-03T09:38:42;4.00;;;2.45;;
44328;SDS011;30039;51.462;6.892;2023-05-03T09:41:29;6.18;;;2.95;;
44328;SDS011;30039;51.462;6.892;2023-05-03T09:44:15;3.60;;;2.58;;
44328;SDS011;30039;51.462;6.892;2023-05-03T09:47:02;5.22;;;2.70;;
44328;SDS011;30039;51.462;6.892;2023-05-03T09:49:48;3.97;;;2.47;;
44328;SDS011;30039;51.462;6.892;2023-05-03T09:52:33;5.78;;;3.13;;
44328;SDS011;30039;51.462;6.892;2023-05-03T09:55:19;3.95;;;2.08;;
44328;SDS011;30039;51.462;6.892;2023-05-03T09:58:06;5.35;;;2.92;;
44328;SDS011;30039;51.462;6.892;2023-05-03T10:00:52;6.05;;;2.83;;
44328;SDS011;30039;51.462;6.892;2023-05-03T10:03:48;7.07;;;2.47;;
44328;SDS011;30039;51.462;6.892;2023-05-03T10:06:35;5.95;;;2.42;;
44328;SDS011;30039;51.462;6.892;2023-05-03T10:09:23;3.70;;;2.38;;
44328;SDS011;30039;51.462;6.892;2023-05-03T10:12:09;5.25;;;2.38;;
44328;SDS011;30039;51.462;6.892;2023-05-03T10:14:56;5.82;;;2.63;;
44328;SDS011;30039;51.462;6.892;2023-05-03T10:17:44;5.78;;;2.83;;
44328;SDS011;30039;51.462;6.892;2023-05-03T10:20:32;5.00;;;2.58;;
44328;SDS011;30039;51.462;6.892;2023-05-03T10:23:19;3.67;;;2.15;;
44328;SDS011;30039;51.462;6.892;2023-05-03T10:28:55;5.03;;;2.40;;
44328;SDS011;30039;51.462;6.892;2023-05-03T10:31:45;3.95;;;2.35;;
44328;SDS011;30039;51.462;6.892;2023-05-03T10:34:32;6.03;;;2.70;;
44328;SDS011;30039;51.462;6.892;2023-05-03T10:37:18;4.32;;;2.25;;
44328;SDS011;30039;51.462;6.892;2023-05-03T10:40:14;4.20;;;2.40;;
44328;SDS011;30039;51.462;6.892;2023-05-03T10:43:00;4.38;;;2.53;;
44328;SDS011;30039;51.462;6.892;2023-05-03T10:45:46;3.38;;;2.13;;
44328;SDS011;30039;51.462;6.892;2023-05-03T10:48:35;3.60;;;2.00;;
44328;SDS011;30039;51.462;6.892;2023-05-03T10:51:31;4.10;;;2.30;;
44328;SDS011;30039;51.462;6.892;2023-05-03T10:54:21;3.08;;;1.95;;
44328;SDS011;30039;51.462;6.892;2023-05-03T10:57:07;6.45;;;2.83;;
44328;SDS011;30039;51.462;6.892;2023-05-03T10:59:53;4.50;;;2.55;;
44328;SDS011;30039;51.462;6.892;2023-05-03T11:02:51;4.30;;;2.65;;
44328;SDS011;30039;51.462;6.892;2023-05-03T11:05:42;6.78;;;2.40;;
44328;SDS011;30039;51.462;6.892;2023-05-03T11:08:27;3.05;;;2.10;;
44328;SDS011;30039;51.462;6.892;2023-05-03T11:11:21;6.90;;;2.55;;
44328;SDS011;30039;51.462;6.892;2023-05-03T11:14:07;5.97;;;2.85;;
44328;SDS011;30039;51.462;6.892;2023-05-03T11:16:54;6.40;;;2.58;;
44328;SDS011;30039;51.462;6.892;2023-05-03T11:19:45;5.43;;;2.47;;
44328;SDS011;30039;51.462;6.892;2023-05-03T11:22:31;6.35;;;2.38;;
44328;SDS011;30039;51.462;6.892;2023-05-03T11:25:17;4.55;;;2.58;;
44328;SDS011;30039;51.462;6.892;2023-05-03T11:28:03;4.25;;;2.40;;
44328;SDS011;30039;51.462;6.892;2023-05-03T11:30:49;5.85;;;2.47;;
44328;SDS011;30039;51.462;6.892;2023-05-03T11:33:35;3.22;;;2.30;;
44328;SDS011;30039;51.462;6.892;2023-05-03T11:36:21;7.75;;;2.88;;
44328;SDS011;30039;51.462;6.892;2023-05-03T11:39:09;5.15;;;2.78;;
44328;SDS011;30039;51.462;6.892;2023-05-03T11:42:04;4.50;;;2.28;;
44328;SDS011;30039;51.462;6.892;2023-05-03T11:44:51;5.00;;;2.58;;
44328;SDS011;30039;51.462;6.892;2023-05-03T11:47:37;5.10;;;2.50;;
44328;SDS011;30039;51.462;6.892;2023-05-03T11:50:26;5.22;;;2.63;;
44328;SDS011;30039;51.462;6.892;2023-05-03T11:53:13;5.38;;;2.58;;
44328;SDS011;30039;51.462;6.892;2023-05-03T11:55:59;11.75;;;3.65;;
44328;SDS011;30039;51.462;6.892;2023-05-03T11:58:48;4.50;;;2.30;;
44328;SDS011;30039;51.462;6.892;2023-05-03T12:01:35;5.85;;;2.75;;
44328;SDS011;30039;51.462;6.892;2023-05-03T12:04:21;5.75;;;2.55;;
44328;SDS011;30039;51.462;6.892;2023-05-03T12:07:10;6.47;;;2.55;;
44328;SDS011;30039;51.462;6.892;2023-05-03T12:09:58;4.05;;;2.55;;
44328;SDS011;30039;51.462;6.892;2023-05-03T12:12:50;4.35;;;2.72;;
44328;SDS011;30039;51.462;6.892;2023-05-03T12:15:37;6.30;;;3.05;;
44328;SDS011;30039;51.462;6.892;2023-05-03T12:18:22;7.85;;;2.80;;
44328;SDS011;30039;51.462;6.892;2023-05-03T12:21:09;4.72;;;2.45;;
44328;SDS011;30039;51.462;6.892;2023-05-03T12:23:56;9.52;;;3.25;;
44328;SDS011;30039;51.462;6.892;2023-05-03T12:26:43;4.47;;;2.83;;
44328;SDS011;30039;51.462;6.892;2023-05-03T12:29:28;3.95;;;2.60;;
44328;SDS011;30039;51.462;6.892;2023-05-03T12:32:15;7.47;;;2.80;;
44328;SDS011;30039;51.462;6.892;2023-05-03T12:35:01;4.28;;;2.20;;
44328;SDS011;30039;51.462;6.892;2023-05-03T12:37:47;5.30;;;2.28;;
44328;SDS011;30039;51.462;6.892;2023-05-03T12:40:33;3.60;;;2.00;;
44328;SDS011;30039;51.462;6.892;2023-05-03T12:43:19;3.75;;;2.50;;
44328;SDS011;30039;51.462;6.892;2023-05-03T12:46:05;4.30;;;2.70;;
44328;SDS011;30039;51.462;6.892;2023-05-03T12:48:51;4.28;;;2.55;;
44328;SDS011;30039;51.462;6.892;2023-05-03T12:51:37;5.65;;;2.70;;
44328;SDS011;30039;51.462;6.892;2023-05-03T12:54:22;8.07;;;3.08;;
44328;SDS011;30039;51.462;6.892;2023-05-03T12:57:08;5.45;;;2.90;;
44328;SDS011;30039;51.462;6.892;2023-05-03T12:59:55;7.72;;;2.83;;
44328;SDS011;30039;51.462;6.892;2023-05-03T13:02:41;4.18;;;2.65;;
44328;SDS011;30039;51.462;6.892;2023-05-03T13:05:27;5.72;;;2.83;;
44328;SDS011;30039;51.462;6.892;2023-05-03T13:08:12;5.07;;;2.60;;
44328;SDS011;30039;51.462;6.892;2023-05-03T13:10:58;4.50;;;2.83;;
44328;SDS011;30039;51.462;6.892;2023-05-03T13:13:44;7.38;;;2.95;;
44328;SDS011;30039;51.462;6.892;2023-05-03T13:16:29;5.10;;;3.45;;
44328;SDS011;30039;51.462;6.892;2023-05-03T13:19:16;5.20;;;2.65;;
44328;SDS011;30039;51.462;6.892;2023-05-03T13:22:02;6.43;;;3.60;;
44328;SDS011;30039;51.462;6.892;2023-05-03T13:24:48;5.45;;;3.13;;
44328;SDS011;30039;51.462;6.892;2023-05-03T13:27:34;4.97;;;3.05;;
44328;SDS011;30039;51.462;6.892;2023-05-03T13:30:21;6.28;;;3.25;;
44328;SDS011;30039;51.462;6.892;2023-05-03T13:33:08;6.13;;;3.45;;
44328;SDS011;30039;51.462;6.892;2023-05-03T13:35:54;5.72;;;2.55;;
44328;SDS011;30039;51.462;6.892;2023-05-03T13:38:42;6.13;;;3.05;;
44328;SDS011;30039;51.462;6.892;2023-05-03T13:41:27;4.55;;;2.88;;
44328;SDS011;30039;51.462;6.892;2023-05-03T13:44:13;6.18;;;3.33;;
44328;SDS011;30039;51.462;6.892;2023-05-03T13:46:59;6.57;;;3.00;;
44328;SDS011;30039;51.462;6.892;2023-05-03T13:49:46;8.82;;;3.70;;
44328;SDS011;30039;51.462;6.892;2023-05-03T13:52:32;6.57;;;2.97;;
44328;SDS011;30039;51.462;6.892;2023-05-03T13:55:17;6.63;;;3.25;;
44328;SDS011;30039;51.462;6.892;2023-05-03T13:58:03;8.75;;;3.90;;
44328;SDS011;30039;51.462;6.892;2023-05-03T14:00:49;7.18;;;3.53;;
44328;SDS011;30039;51.462;6.892;2023-05-03T14:03:34;5.72;;;3.30;;
44328;SDS011;30039;51.462;6.892;2023-05-03T14:06:20;7.90;;;3.60;;
44328;SDS011;30039;51.462;6.892;2023-05-03T14:09:07;9.50;;;3.42;;
44328;SDS011;30039;51.462;6.892;2023-05-03T14:11:53;6.38;;;3.17;;
44328;SDS011;30039;51.462;6.892;2023-05-03T14:14:39;8.10;;;2.75;;
44328;SDS011;30039;51.462;6.892;2023-05-03T14:17:24;5.55;;;3.10;;
44328;SDS011;30039;51.462;6.892;2023-05-03T14:20:10;8.15;;;3.97;;
44328;SDS011;30039;51.462;6.892;2023-05-03T14:22:56;9.88;;;3.28;;
44328;SDS011;30039;51.462;6.892;2023-05-03T14:25:42;5.07;;;3.40;;
44328;SDS011;30039;51.462;6.892;2023-05-03T14:28:28;7.60;;;4.35;;
44328;SDS011;30039;51.462;6.892;2023-05-03T14:31:14;16.00;;;4.40;;
44328;SDS011;30039;51.462;6.892;2023-05-03T14:34:00;16.27;;;4.53;;
44328;SDS011;30039;51.462;6.892;2023-05-03T14:36:46;6.63;;;3.25;;
44328;SDS011;30039;51.462;6.892;2023-05-03T14:39:32;7.63;;;3.50;;
44328;SDS011;30039;51.462;6.892;2023-05-03T14:42:17;7.22;;;3.33;;
44328;SDS011;30039;51.462;6.892;2023-05-03T14:45:04;10.10;;;3.72;;
44328;SDS011;30039;51.462;6.892;2023-05-03T14:47:50;9.82;;;3.70;;
44328;SDS011;30039;51.462;6.892;2023-05-03T14:50:36;6.28;;;3.50;;
44328;SDS011;30039;51.462;6.892;2023-05-03T14:53:22;8.32;;;3.60;;
44328;SDS011;30039;51.462;6.892;2023-05-03T14:56:08;5.10;;;3.33;;
44328;SDS011;30039;51.462;6.892;2023-05-03T14:58:53;5.93;;;3.78;;
44328;SDS011;30039;51.462;6.892;2023-05-03T15:01:39;5.32;;;4.10;;
44328;SDS011;30039;51.462;6.892;2023-05-03T15:04:25;7.80;;;3.78;;
44328;SDS011;30039;51.462;6.892;2023-05-03T15:07:11;7.97;;;4.03;;
44328;SDS011;30039;51.462;6.892;2023-05-03T15:09:57;6.90;;;3.88;;
44328;SDS011;30039;51.462;6.892;2023-05-03T15:12:43;6.32;;;3.35;;
44328;SDS011;30039;51.462;6.892;2023-05-03T15:15:29;8.32;;;4.07;;
44328;SDS011;30039;51.462;6.892;2023-05-03T15:18:14;8.15;;;3.63;;
44328;SDS011;30039;51.462;6.892;2023-05-03T15:21:03;5.20;;;3.92;;
44328;SDS011;30039;51.462;6.892;2023-05-03T15:23:49;9.48;;;3.80;;
44328;SDS011;30039;51.462;6.892;2023-05-03T15:26:35;5.38;;;4.07;;
44328;SDS011;30039;51.462;6.892;2023-05-03T15:29:21;6.43;;;3.45;;
44328;SDS011;30039;51.462;6.892;2023-05-03T15:32:08;7.07;;;3.72;;
44328;SDS011;30039;51.462;6.892;2023-05-03T15:34:55;7.30;;;3.83;;
44328;SDS011;30039;51.462;6.892;2023-05-03T15:37:42;6.47;;;4.07;;
44328;SDS011;30039;51.462;6.892;2023-05-03T15:40:27;7.47;;;3.95;;
44328;SDS011;30039;51.462;6.892;2023-05-03T15:43:14;5.10;;;4.05;;
44328;SDS011;30039;51.462;6.892;2023-05-03T15:46:00;7.32;;;4.45;;
44328;SDS011;30039;51.462;6.892;2023-05-03T15:48:46;6.00;;;4.03;;
44328;SDS011;30039;51.462;6.892;2023-05-03T15:51:32;6.70;;;4.10;;
44328;SDS011;30039;51.462;6.892;2023-05-03T15:54:18;10.65;;;4.85;;
44328;SDS011;30039;51.462;6.892;2023-05-03T15:57:07;6.90;;;4.10;;
44328;SDS011;30039;51.462;6.892;2023-05-03T15:59:57;6.85;;;3.88;;
44328;SDS011;30039;51.462;6.892;2023-05-03T16:02:47;7.93;;;4.18;;
44328;SDS011;30039;51.462;6.892;2023-05-03T16:05:34;9.20;;;4.38;;
44328;SDS011;30039;51.462;6.892;2023-05-03T16:08:27;9.90;;;4.55;;
44328;SDS011;30039;51.462;6.892;2023-05-03T16:11:23;8.55;;;4.25;;
44328;SDS011;30039;51.462;6.892;2023-05-03T16:14:34;5.47;;;3.72;;
44328;SDS011;30039;51.462;6.892;2023-05-03T16:17:23;5.32;;;3.72;;
44328;SDS011;30039;51.462;6.892;2023-05-03T16:20:17;7.03;;;4.40;;
44328;SDS011;30039;51.462;6.892;2023-05-03T16:23:07;10.95;;;4.13;;
44328;SDS011;30039;51.462;6.892;2023-05-03T16:25:58;6.82;;;4.40;;
44328;SDS011;30039;51.462;6.892;2023-05-03T16:29:08;7.50;;;4.07;;
44328;SDS011;30039;51.462;6.892;2023-05-03T16:32:09;7.03;;;4.50;;
44328;SDS011;30039;51.462;6.892;2023-05-03T16:35:02;6.20;;;4.50;;
44328;SDS011;30039;51.462;6.892;2023-05-03T16:37:54;7.78;;;3.88;;
44328;SDS011;30039;51.462;6.892;2023-05-03T16:40:40;11.10;;;4.47;;
44328;SDS011;30039;51.462;6.892;2023-05-03T16:43:26;8.57;;;4.13;;
44328;SDS011;30039;51.462;6.892;2023-05-03T16:46:12;8.00;;;4.03;;
44328;SDS011;30039;51.462;6.892;2023-05-03T16:48:58;7.85;;;3.97;;
44328;SDS011;30039;51.462;6.892;2023-05-03T16:51:43;8.32;;;3.90;;
44328;SDS011;30039;51.462;6.892;2023-05-03T16:54:29;9.90;;;4.35;;
44328;SDS011;30039;51.462;6.892;2023-05-03T16:57:15;5.72;;;3.80;;
44328;SDS011;30039;51.462;6.892;2023-05-03T17:00:05;8.23;;;4.10;;